createdAt,value
2022-08-26T00:01:44.134Z,83.88
2022-08-26T00:04:11.876Z,83.82
2022-08-26T00:06:42.692Z,83.38
2022-08-26T00:09:16.727Z,83.78
2022-08-26T00:11:47.183Z,83.42
2022-08-26T00:14:14.692Z,83.46
2022-08-26T00:16:48.226Z,83.52
2022-08-26T00:19:16.076Z,83.38
2022-08-26T00:21:42.522Z,83.55
2022-08-26T00:24:12.363Z,83.80
2022-08-26T00:26:40.032Z,83.78
2022-08-26T00:29:08.236Z,83.95
2022-08-26T00:31:38.925Z,84.04
2022-08-26T00:34:06.747Z,84.49
2022-08-26T00:36:36.420Z,84.21
2022-08-26T00:39:07.679Z,84.35
2022-08-26T00:41:35.941Z,84.38
2022-08-26T00:44:02.621Z,84.14
2022-08-26T00:46:34.070Z,84.31
2022-08-26T00:49:12.713Z,83.53
2022-08-26T00:52:02.634Z,84.39
2022-08-26T00:54:34.001Z,84.32
2022-08-26T00:57:08.718Z,84.17
2022-08-26T00:59:45.589Z,83.36
2022-08-26T01:02:19.995Z,84.01
2022-08-26T01:04:49.487Z,84.12
2022-08-26T01:07:24.448Z,83.86
2022-08-26T01:09:50.997Z,83.81
2022-08-26T01:12:21.972Z,83.57
2022-08-26T01:14:49.428Z,84.11
2022-08-26T01:17:16.092Z,83.46
2022-08-26T01:19:48.658Z,83.92
2022-08-26T01:22:50.362Z,84.19
2022-08-26T01:25:19.886Z,84.19
2022-08-26T01:27:49.053Z,84.34
2022-08-26T01:30:16.517Z,84.04
2022-08-26T01:32:44.676Z,83.91
2022-08-26T01:35:11.497Z,84.32
2022-08-26T01:37:41.633Z,84.03
2022-08-26T01:40:16.942Z,84.41
2022-08-26T01:42:44.688Z,84.56
2022-08-26T01:45:21.473Z,84.16
2022-08-26T01:47:49.983Z,84.48
2022-08-26T01:50:30.299Z,84.81
2022-08-26T01:53:01.791Z,85.04
2022-08-26T01:55:34.123Z,85.03
2022-08-26T01:58:06.330Z,84.86
2022-08-26T02:00:35.194Z,85.10
2022-08-26T02:03:21.521Z,85.33
2022-08-26T02:05:53.468Z,85.14
2022-08-26T02:08:28.179Z,85.54
2022-08-26T02:10:55.529Z,85.79
2022-08-26T02:13:26.618Z,85.11
2022-08-26T02:15:54.254Z,85.42
2022-08-26T02:18:21.078Z,85.80
2022-08-26T02:20:51.692Z,85.66
2022-08-26T02:23:18.732Z,84.75
2022-08-26T02:26:16.513Z,85.16
2022-08-26T02:28:54.123Z,85.61
2022-08-26T02:31:21.035Z,84.67
2022-08-26T02:33:49.270Z,84.75
2022-08-26T02:36:21.139Z,84.86
2022-08-26T02:38:47.744Z,84.77
2022-08-26T02:41:14.521Z,84.67
2022-08-26T02:43:41.040Z,84.92
2022-08-26T02:46:07.671Z,84.70
2022-08-26T02:48:35.423Z,84.64
2022-08-26T02:51:03.489Z,84.76
2022-08-26T02:53:35.568Z,84.72
2022-08-26T02:56:02.740Z,84.50
2022-08-26T02:58:29.691Z,84.83
2022-08-26T03:00:59.083Z,85.01
2022-08-26T03:03:26.184Z,84.57
2022-08-26T03:05:53.676Z,84.16
2022-08-26T03:08:24.094Z,84.34
2022-08-26T03:10:51.913Z,84.27
2022-08-26T03:13:19.161Z,84.00
2022-08-26T03:15:45.987Z,84.42
2022-08-26T03:18:14.394Z,84.09
2022-08-26T03:20:41.079Z,84.54
2022-08-26T03:23:10.331Z,83.96
2022-08-26T03:25:37.017Z,84.09
2022-08-26T03:28:03.565Z,84.82
2022-08-26T03:30:44.225Z,84.70
2022-08-26T03:33:14.074Z,83.95
2022-08-26T03:35:47.844Z,84.35
2022-08-26T03:38:17.316Z,84.35
2022-08-26T03:40:44.329Z,84.41
2022-08-26T03:43:11.854Z,84.69
2022-08-26T03:45:41.174Z,84.59
2022-08-26T03:48:11.309Z,84.44
2022-08-26T03:50:38.863Z,84.23
2022-08-26T03:53:07.485Z,84.28
2022-08-26T03:55:41.509Z,85.04
2022-08-26T03:58:08.490Z,84.56
2022-08-26T04:00:35.005Z,85.08
2022-08-26T04:03:02.737Z,85.35
2022-08-26T04:05:29.758Z,85.52
2022-08-26T04:07:58.683Z,85.15
2022-08-26T04:10:29.216Z,85.50
2022-08-26T04:12:59.202Z,85.34
2022-08-26T04:15:27.262Z,84.89
2022-08-26T04:17:54.432Z,84.78
2022-08-26T04:20:22.641Z,85.10
2022-08-26T04:22:49.141Z,83.69
2022-08-26T04:25:15.725Z,84.39
2022-08-26T04:27:42.834Z,84.12
2022-08-26T04:30:13.225Z,84.27
2022-08-26T04:32:39.793Z,84.39
2022-08-26T04:35:11.342Z,84.04
2022-08-26T04:37:43.115Z,84.25
2022-08-26T04:40:10.990Z,84.01
2022-08-26T04:42:37.708Z,84.05
2022-08-26T04:45:05.918Z,84.04
2022-08-26T04:47:37.206Z,84.35
2022-08-26T04:50:06.018Z,84.52
2022-08-26T04:52:34.270Z,84.28
2022-08-26T04:55:00.914Z,84.13
2022-08-26T04:57:30.538Z,84.64
2022-08-26T04:59:58.122Z,84.67
2022-08-26T05:02:24.906Z,83.18
2022-08-26T05:04:52.374Z,83.67
2022-08-26T05:07:21.837Z,83.74
2022-08-26T05:09:50.806Z,84.11
2022-08-26T05:12:17.548Z,83.75
2022-08-26T05:14:46.347Z,84.09
2022-08-26T05:17:15.067Z,83.92
2022-08-26T05:19:42.808Z,84.03
2022-08-26T05:22:13.270Z,83.78
2022-08-26T05:24:41.269Z,84.26
2022-08-26T05:27:11.770Z,83.61
2022-08-26T05:29:38.979Z,83.47
2022-08-26T05:32:08.217Z,84.09
2022-08-26T05:34:37.870Z,83.47
2022-08-26T05:37:05.989Z,82.92
2022-08-26T05:39:33.697Z,82.97
2022-08-26T05:42:00.837Z,82.78
2022-08-26T05:44:28.978Z,82.45
2022-08-26T05:47:02.624Z,82.33
2022-08-26T05:49:36.869Z,82.72
2022-08-26T05:52:11.767Z,82.22
2022-08-26T05:54:41.583Z,82.13
2022-08-26T05:57:08.267Z,82.39
2022-08-26T05:59:34.868Z,82.05
2022-08-26T06:02:04.213Z,81.89
2022-08-26T06:04:37.460Z,81.70
2022-08-26T06:07:07.323Z,81.35
2022-08-26T06:09:38.671Z,81.86
2022-08-26T06:12:05.867Z,81.94
2022-08-26T06:14:32.597Z,81.32
2022-08-26T06:17:00.772Z,80.66
2022-08-26T06:19:33.047Z,81.06
2022-08-26T06:22:22.510Z,81.26
2022-08-26T06:25:11.439Z,81.54
2022-08-26T06:27:38.142Z,81.58
2022-08-26T06:30:06.003Z,80.69
2022-08-26T06:32:32.849Z,81.06
2022-08-26T06:34:59.822Z,81.05
2022-08-26T06:37:28.405Z,81.05
2022-08-26T06:39:55.842Z,81.44
2022-08-26T06:42:24.159Z,80.63
2022-08-26T06:44:53.702Z,80.18
2022-08-26T06:47:20.457Z,80.54
2022-08-26T06:49:47.294Z,79.97
2022-08-26T06:52:14.496Z,79.80
2022-08-26T06:54:46.445Z,79.05
2022-08-26T06:57:13.141Z,78.69
2022-08-26T06:59:43.201Z,78.28
2022-08-26T07:02:09.861Z,78.46
2022-08-26T07:04:41.028Z,79.15
2022-08-26T07:07:07.990Z,78.94
2022-08-26T07:09:37.449Z,79.27
2022-08-26T07:12:04.484Z,78.26
2022-08-26T07:14:31.675Z,79.21
2022-08-26T07:17:01.339Z,79.43
2022-08-26T07:19:30.938Z,79.39
2022-08-26T07:22:03.913Z,79.35
2022-08-26T07:24:32.271Z,78.45
2022-08-26T07:27:05.792Z,78.85
2022-08-26T07:29:33.161Z,78.77
2022-08-26T07:31:59.825Z,78.53
2022-08-26T07:34:27.196Z,77.88
2022-08-26T07:36:53.633Z,78.11
2022-08-26T07:39:23.503Z,78.84
2022-08-26T07:41:50.562Z,78.49
2022-08-26T07:44:29.135Z,78.57
2022-08-26T07:46:56.404Z,79.04
2022-08-26T07:49:25.022Z,78.56
2022-08-26T07:51:54.446Z,78.68
2022-08-26T07:54:26.753Z,78.72
2022-08-26T07:56:54.858Z,78.67
2022-08-26T07:59:23.263Z,78.06
2022-08-26T08:01:52.175Z,78.75
2022-08-26T08:04:26.133Z,78.44
2022-08-26T08:06:53.973Z,77.43
2022-08-26T08:09:20.471Z,77.88
2022-08-26T08:11:49.671Z,77.64
2022-08-26T08:14:22.040Z,78.77
2022-08-26T08:16:51.022Z,78.35
2022-08-26T08:19:20.960Z,77.53
2022-08-26T08:21:48.362Z,77.37
2022-08-26T08:24:15.972Z,77.06
2022-08-26T08:26:42.490Z,77.24
2022-08-26T08:29:11.029Z,77.83
2022-08-26T08:31:56.964Z,77.37
2022-08-26T08:34:26.219Z,77.04
2022-08-26T08:36:53.699Z,76.68
2022-08-26T08:39:21.963Z,76.76
2022-08-26T08:42:33.515Z,77.11
2022-08-26T08:45:07.700Z,77.10
2022-08-26T08:47:43.494Z,76.75
2022-08-26T08:50:25.964Z,76.35
2022-08-26T08:53:13.079Z,75.78
2022-08-26T08:56:00.419Z,75.75
2022-08-26T08:58:57.286Z,76.32
2022-08-26T09:01:52.264Z,76.59
2022-08-26T09:04:38.401Z,75.60
2022-08-26T09:07:08.737Z,75.41
2022-08-26T09:09:46.028Z,74.29
2022-08-26T09:12:29.390Z,74.94
2022-08-26T09:15:02.679Z,74.05
2022-08-26T09:17:53.187Z,74.49
2022-08-26T09:20:34.914Z,74.31
2022-08-26T09:23:03.525Z,74.01
2022-08-26T09:25:30.170Z,73.39
2022-08-26T09:27:57.651Z,73.87
2022-08-26T09:30:33.107Z,73.59
2022-08-26T09:33:10.840Z,73.32
2022-08-26T09:35:41.323Z,72.52
2022-08-26T09:38:33.999Z,71.51
2022-08-26T09:41:05.080Z,71.83
2022-08-26T09:43:32.020Z,71.78
2022-08-26T09:46:24.460Z,71.75
2022-08-26T09:48:53.020Z,72.04
2022-08-26T09:51:26.448Z,72.58
2022-08-26T09:53:58.329Z,72.82
2022-08-26T09:56:27.620Z,71.62
2022-08-26T09:58:55.317Z,71.09
2022-08-26T10:01:35.279Z,71.74
2022-08-26T10:04:06.710Z,71.37
2022-08-26T10:06:38.195Z,71.67
2022-08-26T10:09:09.890Z,71.53
2022-08-26T10:11:45.645Z,70.58
2022-08-26T10:14:27.780Z,70.04
2022-08-26T10:17:02.152Z,70.11
2022-08-26T10:19:55.578Z,71.14
2022-08-26T10:22:58.892Z,70.22
2022-08-26T10:25:32.546Z,71.00
2022-08-26T10:28:28.420Z,71.49
2022-08-26T10:31:01.837Z,71.74
2022-08-26T10:33:28.517Z,72.65
2022-08-26T10:36:01.157Z,72.82
2022-08-26T10:38:34.717Z,72.62
2022-08-26T10:41:11.025Z,72.79
2022-08-26T10:43:52.051Z,72.27
2022-08-26T10:46:27.223Z,72.50
2022-08-26T10:49:06.454Z,73.23
2022-08-26T10:51:42.060Z,73.25
2022-08-26T10:54:15.911Z,73.50
2022-08-26T10:56:51.504Z,73.60
2022-08-26T10:59:21.922Z,73.16
2022-08-26T11:02:07.023Z,73.90
2022-08-26T11:04:55.926Z,73.10
2022-08-26T11:07:42.475Z,72.97
2022-08-26T11:10:12.304Z,73.08
2022-08-26T11:12:42.074Z,71.97
2022-08-26T11:15:11.498Z,71.65
2022-08-26T11:17:46.069Z,72.47
2022-08-26T11:20:27.885Z,71.69
2022-08-26T11:22:56.703Z,72.36
2022-08-26T11:25:29.957Z,71.51
2022-08-26T11:28:00.819Z,71.55
2022-08-26T11:30:40.773Z,70.17
2022-08-26T11:33:08.410Z,70.51
2022-08-26T11:35:37.567Z,71.64
2022-08-26T11:38:28.817Z,70.26
2022-08-26T11:41:20.751Z,71.31
2022-08-26T11:43:51.906Z,70.72
2022-08-26T11:46:27.344Z,71.81
2022-08-26T11:49:05.196Z,71.01
2022-08-26T11:51:35.973Z,70.95
2022-08-26T11:54:30.505Z,69.78
2022-08-26T11:57:07.925Z,69.86
2022-08-26T11:59:45.908Z,70.68
2022-08-26T12:02:16.804Z,69.62
2022-08-26T12:04:48.825Z,70.22
2022-08-26T12:07:17.154Z,70.63
2022-08-26T12:09:54.756Z,68.83
2022-08-26T12:12:34.543Z,68.87
2022-08-26T12:15:11.543Z,69.21
2022-08-26T12:17:39.885Z,69.54
2022-08-26T12:20:48.844Z,68.37
2022-08-26T12:23:22.625Z,69.16
2022-08-26T12:25:52.804Z,68.58
2022-08-26T12:28:21.615Z,70.37
2022-08-26T12:31:05.108Z,68.73
2022-08-26T12:33:35.935Z,68.50
2022-08-26T12:36:05.146Z,69.26
2022-08-26T12:38:36.801Z,69.48
2022-08-26T12:41:03.571Z,68.06
2022-08-26T12:43:45.053Z,68.10
2022-08-26T12:46:16.468Z,67.49
2022-08-26T12:48:47.546Z,68.28
2022-08-26T12:51:25.376Z,67.89
2022-08-26T12:53:55.129Z,66.81
2022-08-26T12:56:27.323Z,67.03
2022-08-26T12:59:06.107Z,67.62
2022-08-26T13:01:42.914Z,67.97
2022-08-26T13:04:36.575Z,67.54
2022-08-26T13:07:32.698Z,66.55
2022-08-26T13:09:59.683Z,66.53
2022-08-26T13:12:37.381Z,66.85
2022-08-26T13:15:05.680Z,66.02
2022-08-26T13:17:32.305Z,67.27
2022-08-26T13:20:03.581Z,68.04
2022-08-26T13:22:30.621Z,67.93
2022-08-26T13:24:57.212Z,68.06
2022-08-26T13:27:26.337Z,67.76
2022-08-26T13:29:53.795Z,66.77
2022-08-26T13:32:22.374Z,66.15
2022-08-26T13:34:53.803Z,66.96
2022-08-26T13:37:22.266Z,68.07
2022-08-26T13:40:00.592Z,68.48
2022-08-26T13:42:27.395Z,67.35
2022-08-26T13:44:57.873Z,67.71
2022-08-26T13:47:25.770Z,68.10
2022-08-26T13:49:54.058Z,68.72
2022-08-26T13:52:30.678Z,68.87
2022-08-26T13:55:01.064Z,69.10
2022-08-26T13:57:29.780Z,69.59
2022-08-26T13:59:58.889Z,69.76
2022-08-26T14:02:26.334Z,70.05
2022-08-26T14:04:54.698Z,69.91
2022-08-26T14:07:21.323Z,70.47
2022-08-26T14:09:47.754Z,69.95
2022-08-26T14:12:14.216Z,69.36
2022-08-26T14:14:43.697Z,69.27
2022-08-26T14:17:12.952Z,69.25
2022-08-26T14:19:43.717Z,69.10
2022-08-26T14:22:14.257Z,69.58
2022-08-26T14:24:44.868Z,69.22
2022-08-26T14:27:12.654Z,69.12
2022-08-26T14:29:41.893Z,69.25
2022-08-26T14:32:13.726Z,70.05
2022-08-26T14:34:41.584Z,68.34
2022-08-26T14:37:09.219Z,68.80
2022-08-26T14:39:38.073Z,69.14
2022-08-26T14:42:04.880Z,68.30
2022-08-26T14:44:33.153Z,68.33
2022-08-26T14:47:01.028Z,68.38
2022-08-26T14:49:27.671Z,68.78
2022-08-26T14:51:54.854Z,68.24
2022-08-26T14:54:21.386Z,67.32
2022-08-26T14:56:53.981Z,66.99
2022-08-26T14:59:25.570Z,67.12
2022-08-26T15:01:52.517Z,66.44
2022-08-26T15:04:19.764Z,65.25
2022-08-26T15:06:46.675Z,65.86
2022-08-26T15:09:13.618Z,66.51
2022-08-26T15:11:42.990Z,65.95
2022-08-26T15:14:14.688Z,65.69
2022-08-26T15:16:47.974Z,65.25
2022-08-26T15:19:15.344Z,66.30
2022-08-26T15:21:42.629Z,65.01
2022-08-26T15:24:09.055Z,65.16
2022-08-26T15:26:38.548Z,65.39
2022-08-26T15:29:05.508Z,64.88
2022-08-26T15:31:33.267Z,64.99
2022-08-26T15:34:03.043Z,65.34
2022-08-26T15:36:31.967Z,65.20
2022-08-26T15:39:00.390Z,63.81
2022-08-26T15:41:28.038Z,63.28
2022-08-26T15:43:54.749Z,62.33
2022-08-26T15:46:21.272Z,63.61
2022-08-26T15:48:47.727Z,63.06
2022-08-26T15:51:26.827Z,63.65
2022-08-26T15:53:56.228Z,63.50
2022-08-26T15:56:27.491Z,63.54
2022-08-26T15:58:56.077Z,63.10
2022-08-26T16:01:27.392Z,61.55
2022-08-26T16:03:55.294Z,61.90
2022-08-26T16:06:25.173Z,61.91
2022-08-26T16:08:51.759Z,63.41
2022-08-26T16:11:21.320Z,63.31
2022-08-26T16:13:48.432Z,63.85
2022-08-26T16:16:15.570Z,63.40
2022-08-26T16:18:42.924Z,63.10
2022-08-26T16:21:13.264Z,62.22
2022-08-26T16:23:45.392Z,61.71
2022-08-26T16:26:22.416Z,62.61
2022-08-26T16:28:49.118Z,61.76
2022-08-26T16:31:16.487Z,61.89
2022-08-26T16:33:43.514Z,61.80
2022-08-26T16:36:13.091Z,62.56
2022-08-26T16:38:41.226Z,61.26
2022-08-26T16:41:08.789Z,62.41
2022-08-26T16:43:35.995Z,60.19
2022-08-26T16:46:06.086Z,61.19
2022-08-26T16:48:32.668Z,62.38
2022-08-26T16:50:59.309Z,60.89
2022-08-26T16:53:25.756Z,61.45
2022-08-26T16:55:52.170Z,61.14
2022-08-26T16:58:21.928Z,60.79
2022-08-26T17:00:49.363Z,62.40
2022-08-26T17:03:15.966Z,62.14
2022-08-26T17:05:42.437Z,61.66
2022-08-26T17:08:11.993Z,62.71
2022-08-26T17:10:38.676Z,62.56
2022-08-26T17:13:05.879Z,61.65
2022-08-26T17:15:32.547Z,61.66
2022-08-26T17:17:59.057Z,60.82
2022-08-26T17:20:25.707Z,60.65
2022-08-26T17:22:54.796Z,61.07
2022-08-26T17:25:23.996Z,61.54
2022-08-26T17:27:50.905Z,61.22
2022-08-26T17:30:17.841Z,61.68
2022-08-26T17:32:44.948Z,61.90
2022-08-26T17:35:12.928Z,61.48
2022-08-26T17:37:41.332Z,62.29
2022-08-26T17:40:13.133Z,61.81
2022-08-26T17:42:40.210Z,61.70
2022-08-26T17:45:08.393Z,62.27
2022-08-26T17:47:35.246Z,62.51
2022-08-26T17:50:02.004Z,62.97
2022-08-26T17:52:28.967Z,62.16
2022-08-26T17:54:58.983Z,62.00
2022-08-26T17:57:29.439Z,62.84
2022-08-26T17:59:56.768Z,62.66
2022-08-26T18:02:24.033Z,63.31
2022-08-26T18:04:50.737Z,63.90
2022-08-26T18:07:17.706Z,64.08
2022-08-26T18:09:44.671Z,64.78
2022-08-26T18:12:12.674Z,64.00
2022-08-26T18:14:41.679Z,64.81
2022-08-26T18:17:08.250Z,63.92
2022-08-26T18:19:34.909Z,63.71
2022-08-26T18:22:04.250Z,61.62
2022-08-26T18:24:32.194Z,62.01
2022-08-26T18:26:59.302Z,62.56
2022-08-26T18:29:36.389Z,62.23
2022-08-26T18:32:12.105Z,62.17
2022-08-26T18:34:41.235Z,63.34
2022-08-26T18:37:15.700Z,62.83
2022-08-26T18:39:42.574Z,62.74
2022-08-26T18:42:11.022Z,62.67
2022-08-26T18:44:40.102Z,62.32
2022-08-26T18:47:09.815Z,62.26
2022-08-26T18:49:46.588Z,64.07
2022-08-26T18:52:13.496Z,64.68
2022-08-26T18:54:43.054Z,64.75
2022-08-26T18:57:13.908Z,64.40
2022-08-26T18:59:43.897Z,64.67
2022-08-26T19:02:13.112Z,64.14
2022-08-26T19:04:42.822Z,64.06
2022-08-26T19:07:10.096Z,63.22
2022-08-26T19:09:37.116Z,63.61
2022-08-26T19:12:08.055Z,63.70
2022-08-26T19:14:37.438Z,65.44
2022-08-26T19:17:05.578Z,64.95
2022-08-26T19:19:32.715Z,65.35
2022-08-26T19:21:59.976Z,65.13
2022-08-26T19:24:29.668Z,65.20
2022-08-26T19:26:59.439Z,65.62
2022-08-26T19:29:29.377Z,65.32
2022-08-26T19:31:56.712Z,66.45
2022-08-26T19:34:24.435Z,64.75
2022-08-26T19:36:53.081Z,65.50
2022-08-26T19:39:20.536Z,64.88
2022-08-26T19:41:47.264Z,66.03
2022-08-26T19:44:40.114Z,66.20
2022-08-26T19:47:08.602Z,66.10
2022-08-26T19:49:35.544Z,66.52
2022-08-26T19:52:03.020Z,66.90
2022-08-26T19:54:29.935Z,65.83
2022-08-26T19:56:56.963Z,65.74
2022-08-26T19:59:23.570Z,65.99
2022-08-26T20:01:55.176Z,66.49
2022-08-26T20:04:29.525Z,66.75
2022-08-26T20:06:57.636Z,66.87
2022-08-26T20:09:24.629Z,66.08
2022-08-26T20:11:51.336Z,66.70
2022-08-26T20:14:23.167Z,66.90
2022-08-26T20:16:49.770Z,65.60
2022-08-26T20:19:37.518Z,65.89
2022-08-26T20:22:04.797Z,66.30
2022-08-26T20:24:32.530Z,66.43
2022-08-26T20:26:59.305Z,67.78
2022-08-26T20:29:26.037Z,68.22
2022-08-26T20:31:54.967Z,67.59
2022-08-26T20:34:24.809Z,68.23
2022-08-26T20:36:52.306Z,67.99
2022-08-26T20:39:21.033Z,68.40
2022-08-26T20:41:57.631Z,67.25
2022-08-26T20:44:24.905Z,67.76
2022-08-26T20:46:51.518Z,68.62
2022-08-26T20:49:18.592Z,68.61
2022-08-26T20:51:53.297Z,68.02
2022-08-26T20:54:26.224Z,69.91
2022-08-26T20:56:56.675Z,70.92
2022-08-26T20:59:23.350Z,70.85
2022-08-26T21:01:49.976Z,70.89
2022-08-26T21:04:19.616Z,70.89
2022-08-26T21:06:52.245Z,71.03
2022-08-26T21:09:21.349Z,70.90
2022-08-26T21:11:48.507Z,71.42
2022-08-26T21:14:16.960Z,71.38
2022-08-26T21:16:45.482Z,70.20
2022-08-26T21:19:15.179Z,70.48
2022-08-26T21:21:42.330Z,70.97
2022-08-26T21:24:11.821Z,71.20
2022-08-26T21:26:38.509Z,72.07
2022-08-26T21:29:07.776Z,71.90
2022-08-26T21:31:34.993Z,71.03
2022-08-26T21:34:01.516Z,71.16
2022-08-26T21:36:28.338Z,71.37
2022-08-26T21:38:59.578Z,71.41
2022-08-26T21:41:26.840Z,71.40
2022-08-26T21:43:58.866Z,70.98
2022-08-26T21:46:28.435Z,69.78
2022-08-26T21:49:01.116Z,70.87
2022-08-26T21:51:33.226Z,70.73
2022-08-26T21:54:05.642Z,70.56
2022-08-26T21:56:41.826Z,70.61
2022-08-26T21:59:08.509Z,70.66
2022-08-26T22:01:36.266Z,71.33
2022-08-26T22:04:09.976Z,72.01
2022-08-26T22:07:03.770Z,71.81
2022-08-26T22:09:33.397Z,72.05
2022-08-26T22:12:00.582Z,72.45
2022-08-26T22:14:47.465Z,72.15
2022-08-26T22:17:19.967Z,71.78
2022-08-26T22:19:52.307Z,71.49
2022-08-26T22:22:20.087Z,71.58
2022-08-26T22:24:53.776Z,71.27
2022-08-26T22:27:20.854Z,72.12
2022-08-26T22:30:01.579Z,72.58
2022-08-26T22:32:41.893Z,72.08
2022-08-26T22:35:28.310Z,71.00
2022-08-26T22:37:59.810Z,71.32
2022-08-26T22:40:35.774Z,71.46
2022-08-26T22:43:09.095Z,71.47
2022-08-26T22:45:43.628Z,71.33
2022-08-26T22:48:15.882Z,71.58
2022-08-26T22:50:48.331Z,70.58
2022-08-26T22:53:16.710Z,71.27
2022-08-26T22:55:43.761Z,70.47
2022-08-26T22:58:13.811Z,71.12
2022-08-26T23:00:46.715Z,70.38
2022-08-26T23:03:16.720Z,71.40
2022-08-26T23:05:53.529Z,71.60
2022-08-26T23:08:20.333Z,70.55
2022-08-26T23:10:47.903Z,71.00
2022-08-26T23:13:21.233Z,71.21
2022-08-26T23:15:48.772Z,72.09
2022-08-26T23:18:16.624Z,71.35
2022-08-26T23:20:43.131Z,71.59
2022-08-26T23:23:12.551Z,71.63
2022-08-26T23:25:39.139Z,72.34
2022-08-26T23:28:10.433Z,72.67
2022-08-26T23:30:37.358Z,72.08
2022-08-26T23:33:08.780Z,71.79
2022-08-26T23:35:35.348Z,70.94
2022-08-26T23:38:02.540Z,69.91
2022-08-26T23:40:32.857Z,69.76
2022-08-26T23:43:05.194Z,69.67
2022-08-26T23:45:34.721Z,70.54
2022-08-26T23:48:06.566Z,70.61
2022-08-26T23:50:52.556Z,71.31
2022-08-26T23:53:22.118Z,70.86
2022-08-26T23:55:52.153Z,71.48
2022-08-26T23:58:20.976Z,69.16
